Time;durP1;ratioP1;P1;durP2;ratioP2;P2;SDS_P1;SDS_P2;PMS_P1;PMS_P2;Temp;Humidity;BMP_temperature;BMP_pressure;BME280_temperature;BME280_humidity;BME280_pressure;Samples;Min_cycle;Max_cycle;Signal;HPM_P1;HPM_P2
2021/04/03 00:01:15;;;;;;;39.58;26.30;;;;;;;7.73;100.00;100644.91;5032736;28;20029;-74
2021/04/03 00:03:41;;;;;;;39.88;27.70;;;;;;;7.65;100.00;100643.19;5042732;28;20096;-73
2021/04/03 00:06:06;;;;;;;34.22;25.63;;;;;;;7.75;100.00;100641.06;5030943;28;20375;-74
2021/04/03 00:08:32;;;;;;;34.88;25.35;;;;;;;7.86;100.00;100637.09;5024813;28;20112;-74
2021/04/03 00:11:03;;;;;;;37.17;26.30;;;;;;;7.94;100.00;100633.50;5043572;28;20076;-74
2021/04/03 00:13:31;;;;;;;37.33;24.17;;;;;;;7.85;100.00;100632.00;5037395;28;20037;-74
2021/04/03 00:15:57;;;;;;;36.20;25.60;;;;;;;7.91;100.00;100636.53;5028495;28;20108;-74
2021/04/03 00:18:22;;;;;;;35.35;26.52;;;;;;;7.84;100.00;100633.84;5029999;28;20076;-74
2021/04/03 00:20:49;;;;;;;34.83;25.30;;;;;;;7.89;100.00;100630.59;5032893;28;20041;-74
2021/04/03 00:23:16;;;;;;;34.30;25.25;;;;;;;7.83;100.00;100634.00;5027224;28;20032;-74
2021/04/03 00:25:41;;;;;;;38.15;26.70;;;;;;;7.85;100.00;100637.28;5029015;28;20036;-74
2021/04/03 00:28:07;;;;;;;38.72;26.10;;;;;;;7.82;100.00;100629.75;5033021;28;20033;-74
2021/04/03 00:30:32;;;;;;;35.85;26.60;;;;;;;7.81;100.00;100621.00;5032643;28;20112;-74
2021/04/03 00:33:01;;;;;;;37.92;25.85;;;;;;;7.78;100.00;100614.25;5029446;28;20051;-74
2021/04/03 00:35:31;;;;;;;40.60;26.85;;;;;;;7.80;100.00;100622.78;5025977;28;20458;-74
2021/04/03 00:37:58;;;;;;;38.40;27.40;;;;;;;7.74;100.00;100623.56;5020520;28;20446;-74
2021/04/03 00:40:34;;;;;;;42.53;29.13;;;;;;;7.73;100.00;100623.75;5028950;28;20037;-74
2021/04/03 00:43:03;;;;;;;37.60;26.42;;;;;;;7.74;100.00;100631.47;5045225;28;20462;-74
2021/04/03 00:45:28;;;;;;;34.53;26.58;;;;;;;7.53;100.00;100647.34;5033388;28;20029;-74
2021/04/03 00:47:53;;;;;;;35.45;25.60;;;;;;;7.53;100.00;100656.13;5032638;28;20132;-74
2021/04/03 00:50:33;;;;;;;32.42;25.90;;;;;;;7.57;100.00;100646.78;5034909;28;20455;-74
2021/04/03 00:52:58;;;;;;;31.40;23.83;;;;;;;7.55;100.00;100645.34;5040712;28;20021;-74
2021/04/03 00:55:24;;;;;;;32.10;22.65;;;;;;;7.63;100.00;100639.13;5034011;28;20044;-74
2021/04/03 00:57:49;;;;;;;36.05;23.17;;;;;;;7.70;100.00;100646.09;5031540;28;20033;-74
2021/04/03 01:00:16;;;;;;;38.03;26.10;;;;;;;7.55;100.00;100635.59;5028719;28;20029;-74
2021/04/03 01:02:42;;;;;;;32.72;23.83;;;;;;;7.78;100.00;100640.69;5028099;28;20036;-74
2021/04/03 01:05:13;;;;;;;36.08;24.90;;;;;;;7.63;100.00;100637.28;5030620;28;20021;-74
2021/04/03 01:07:40;;;;;;;33.65;23.85;;;;;;;7.50;100.00;100629.22;5023424;28;20041;-74
2021/04/03 01:10:06;;;;;;;34.28;24.75;;;;;;;7.45;100.00;100624.50;5030975;28;20442;-74
2021/04/03 01:12:57;;;;;;;36.42;23.85;;;;;;;7.29;100.00;100630.84;5031681;28;20207;-73
2021/04/03 01:15:47;;;;;;;34.92;25.40;;;;;;;7.33;100.00;100626.00;5035054;28;20056;-73
2021/04/03 01:18:27;;;;;;;32.13;24.90;;;;;;;7.38;100.00;100620.97;5032699;28;20040;-74
2021/04/03 01:21:08;;;;;;;39.80;23.55;;;;;;;7.40;100.00;100613.66;5044956;28;20021;-73
2021/04/03 01:23:56;;;;;;;40.92;24.73;;;;;;;7.38;100.00;100614.88;5031111;28;20116;-74
2021/04/03 01:26:40;;;;;;;33.35;25.00;;;;;;;7.35;100.00;100623.97;5040817;28;20043;-74
2021/04/03 01:29:39;;;;;;;37.50;24.77;;;;;;;7.33;100.00;100639.22;5034829;28;20057;-74
2021/04/03 01:32:06;;;;;;;33.03;24.10;;;;;;;7.32;100.00;100627.00;5043364;28;20040;-74
2021/04/03 01:34:36;;;;;;;34.15;25.73;;;;;;;7.33;100.00;100633.94;5030964;28;20172;-74
2021/04/03 01:37:04;;;;;;;33.15;23.75;;;;;;;7.39;100.00;100629.72;5027693;28;20455;-74
2021/04/03 01:39:33;;;;;;;28.90;20.25;;;;;;;7.58;100.00;100621.19;5028771;28;20497;-74
2021/04/03 01:42:05;;;;;;;29.75;23.15;;;;;;;7.28;100.00;100625.75;5038648;28;20047;-74
2021/04/03 01:44:35;;;;;;;26.58;20.40;;;;;;;7.21;100.00;100625.66;5017171;28;20120;-74
2021/04/03 01:47:02;;;;;;;24.35;18.80;;;;;;;7.34;100.00;100630.28;5032203;28;20020;-74
2021/04/03 01:49:31;;;;;;;24.55;18.75;;;;;;;7.28;100.00;100623.09;5028003;28;20406;-73
2021/04/03 01:51:57;;;;;;;23.10;17.85;;;;;;;7.43;100.00;100612.47;5040424;28;20484;-74
2021/04/03 01:54:26;;;;;;;19.42;17.33;;;;;;;7.66;100.00;100622.88;5030618;28;20095;-74
2021/04/03 01:56:53;;;;;;;20.90;18.80;;;;;;;7.28;100.00;100625.75;5027954;28;20471;-74
2021/04/03 01:59:18;;;;;;;20.38;18.38;;;;;;;7.25;100.00;100624.28;5025373;28;20116;-74
2021/04/03 02:01:45;;;;;;;18.70;16.83;;;;;;;7.04;100.00;100630.34;5024431;28;20120;-74
2021/04/03 02:04:13;;;;;;;19.10;17.10;;;;;;;7.04;100.00;100619.78;5033779;28;20489;-74
2021/04/03 02:06:47;;;;;;;18.77;16.77;;;;;;;7.01;100.00;100622.78;5030102;28;20041;-74
2021/04/03 02:09:15;;;;;;;18.80;17.10;;;;;;;7.66;100.00;100613.13;5030150;28;20071;-74
2021/04/03 02:11:46;;;;;;;19.05;17.15;;;;;;;7.04;100.00;100629.53;5031353;28;20467;-73
2021/04/03 02:14:12;;;;;;;19.02;17.33;;;;;;;7.25;100.00;100628.75;5033181;28;20055;-74
2021/04/03 02:16:39;;;;;;;18.92;17.23;;;;;;;7.14;100.00;100629.22;5033112;28;20029;-74
2021/04/03 02:19:08;;;;;;;17.25;15.88;;;;;;;7.33;100.00;100618.06;5022850;28;20025;-74
2021/04/03 02:21:34;;;;;;;20.25;18.25;;;;;;;7.52;100.00;100609.53;5019527;28;20109;-74
2021/04/03 02:24:01;;;;;;;18.17;16.45;;;;;;;7.50;100.00;100603.63;5023245;28;20022;-73
2021/04/03 02:26:34;;;;;;;17.70;16.05;;;;;;;7.42;100.00;100608.22;5025910;28;20455;-74
2021/04/03 02:28:59;;;;;;;18.20;16.60;;;;;;;7.03;100.00;100604.94;5029314;28;20022;-74
2021/04/03 02:31:29;;;;;;;16.92;15.50;;;;;;;7.26;100.00;100598.69;5029853;28;20035;-74
2021/04/03 02:33:55;;;;;;;18.85;17.55;;;;;;;7.41;100.00;100603.91;5027004;28;20358;-74
2021/04/03 02:36:20;;;;;;;18.35;17.00;;;;;;;7.17;100.00;100603.28;5030292;28;20033;-74
2021/04/03 02:38:48;;;;;;;17.65;16.35;;;;;;;7.09;100.00;100600.75;5031730;28;20037;-74
2021/04/03 02:41:35;;;;;;;19.33;17.77;;;;;;;6.90;100.00;100610.06;5046922;28;20025;-74
2021/04/03 02:44:10;;;;;;;17.30;16.10;;;;;;;7.05;100.00;100613.50;5028325;28;20512;-73
2021/04/03 02:47:06;;;;;;;17.05;15.43;;;;;;;8.31;100.00;100611.19;5034449;28;20443;-74
2021/04/03 02:49:38;;;;;;;19.48;18.13;;;;;;;7.23;100.00;100604.34;5026643;28;20116;-74
2021/04/03 02:52:05;;;;;;;20.45;19.02;;;;;;;6.90;100.00;100607.44;5033458;28;20466;-74
2021/04/03 02:54:32;;;;;;;20.15;18.65;;;;;;;7.04;100.00;100616.31;5031810;28;20378;-73
2021/04/03 02:57:00;;;;;;;20.77;19.38;;;;;;;6.84;100.00;100616.91;5028878;28;20026;-74
2021/04/03 02:59:31;;;;;;;19.42;18.20;;;;;;;6.81;100.00;100614.63;5031981;28;20025;-74
2021/04/03 03:01:59;;;;;;;20.77;19.38;;;;;;;7.15;100.00;100607.09;5049197;28;20048;-74
2021/04/03 03:04:27;;;;;;;16.80;15.80;;;;;;;8.11;100.00;100603.13;5030918;28;20458;-74
2021/04/03 03:06:53;;;;;;;23.77;22.23;;;;;;;6.89;100.00;100605.78;5042251;28;20075;-74
2021/04/03 03:09:20;;;;;;;22.40;21.10;;;;;;;6.51;100.00;100608.53;5039594;28;20031;-74
2021/04/03 03:11:54;;;;;;;20.80;19.50;;;;;;;6.97;100.00;100615.44;5036416;28;20068;-73
2021/04/03 03:14:22;;;;;;;20.50;19.20;;;;;;;8.06;100.00;100612.66;5032476;28;20457;-74
2021/04/03 03:16:50;;;;;;;22.52;21.33;;;;;;;6.45;100.00;100613.72;5033068;28;20063;-73
2021/04/03 03:19:16;;;;;;;22.40;21.13;;;;;;;6.23;100.00;100612.78;5031658;28;20076;-74
2021/04/03 03:21:42;;;;;;;22.75;21.35;;;;;;;6.27;100.00;100601.69;5027862;28;20022;-74
2021/04/03 03:24:09;;;;;;;21.60;20.33;;;;;;;6.37;100.00;100609.34;5025713;28;20087;-74
2021/04/03 03:26:36;;;;;;;22.10;20.48;;;;;;;6.18;100.00;100600.16;5031144;28;20049;-74
2021/04/03 03:29:09;;;;;;;17.25;16.27;;;;;;;6.74;100.00;100605.78;5031769;28;20030;-74
2021/04/03 03:31:35;;;;;;;21.00;19.90;;;;;;;6.31;100.00;100596.88;5030688;28;20032;-74
2021/04/03 03:34:00;;;;;;;21.73;20.33;;;;;;;6.31;100.00;100602.16;5030213;28;20025;-74
2021/04/03 03:36:27;;;;;;;23.27;21.88;;;;;;;6.14;100.00;100602.31;5029767;28;20063;-73
2021/04/03 03:38:53;;;;;;;23.65;21.70;;;;;;;6.88;100.00;100604.16;5030504;28;20405;-74
2021/04/03 03:41:21;;;;;;;24.30;22.98;;;;;;;6.13;100.00;100603.31;5033648;28;20037;-74
2021/04/03 03:43:47;;;;;;;23.17;21.88;;;;;;;6.81;100.00;100609.34;5042159;28;20026;-74
2021/04/03 03:46:13;;;;;;;21.73;20.42;;;;;;;6.25;100.00;100606.31;5037569;28;20112;-75
2021/04/03 03:48:38;;;;;;;22.58;21.38;;;;;;;6.30;100.00;100600.53;5034317;28;20543;-74
2021/04/03 03:51:04;;;;;;;25.40;23.90;;;;;;;7.28;100.00;100602.78;5024559;28;20036;-74
2021/04/03 03:53:29;;;;;;;19.38;18.30;;;;;;;7.53;100.00;100595.31;5021619;28;20105;-74
2021/04/03 03:55:55;;;;;;;23.70;22.23;;;;;;;6.51;100.00;100607.72;5028311;28;20390;-73
2021/04/03 03:58:21;;;;;;;24.02;22.60;;;;;;;6.37;100.00;100599.59;5035090;28;20021;-74
2021/04/03 04:00:46;;;;;;;23.38;22.02;;;;;;;6.43;100.00;100606.78;5035748;28;20036;-74
2021/04/03 04:03:12;;;;;;;23.73;22.17;;;;;;;6.58;100.00;100604.16;5024773;28;20513;-74
2021/04/03 04:05:37;;;;;;;23.35;21.92;;;;;;;6.42;100.00;100613.09;5028434;28;20033;-74
2021/04/03 04:08:03;;;;;;;22.45;21.05;;;;;;;6.57;100.00;100614.91;5024102;28;20075;-74
2021/04/03 04:10:28;;;;;;;19.85;18.58;;;;;;;7.16;100.00;100622.75;5032649;28;20022;-73
2021/04/03 04:12:54;;;;;;;23.10;21.80;;;;;;;6.35;100.00;100627.16;5043138;28;20116;-73
2021/04/03 04:15:19;;;;;;;21.67;20.38;;;;;;;6.89;100.00;100635.63;5032329;28;20406;-74
2021/04/03 04:17:45;;;;;;;21.75;20.45;;;;;;;6.88;100.00;100636.66;5031461;28;20390;-73
2021/04/03 04:20:11;;;;;;;22.10;20.80;;;;;;;6.72;100.00;100634.22;5034037;28;20025;-74
2021/04/03 04:22:36;;;;;;;22.73;21.40;;;;;;;6.53;100.00;100634.72;5032126;28;20033;-73
2021/04/03 04:25:03;;;;;;;22.60;21.40;;;;;;;6.22;100.00;100637.53;5042462;28;20028;-73
2021/04/03 04:27:29;;;;;;;36.42;33.53;;;;;;;7.01;100.00;100643.09;5031172;28;20410;-74
2021/04/03 04:29:54;;;;;;;24.13;22.73;;;;;;;6.27;100.00;100635.19;5039294;28;20043;-74
2021/04/03 04:32:20;;;;;;;16.60;15.70;;;;;;;7.65;100.00;100640.56;5036471;28;20423;-73
2021/04/03 04:34:45;;;;;;;22.20;20.50;;;;;;;6.87;100.00;100647.41;5026095;28;20116;-73
2021/04/03 04:37:11;;;;;;;22.42;21.13;;;;;;;6.50;100.00;100645.66;5031163;28;20036;-73
2021/04/03 04:39:36;;;;;;;22.60;21.35;;;;;;;6.46;100.00;100647.03;5025136;28;20067;-73
2021/04/03 04:42:05;;;;;;;22.80;21.50;;;;;;;6.38;100.00;100651.38;5028115;28;20494;-74
2021/04/03 04:44:32;;;;;;;22.85;21.55;;;;;;;6.43;100.00;100650.84;5033130;28;20032;-74
2021/04/03 04:46:57;;;;;;;23.33;21.77;;;;;;;6.55;100.00;100640.66;5030914;28;20025;-73
2021/04/03 04:49:22;;;;;;;24.98;23.35;;;;;;;6.39;100.00;100644.28;5028338;28;20378;-74
2021/04/03 04:51:48;;;;;;;23.05;21.35;;;;;;;6.81;100.00;100648.13;5019052;28;20026;-74
2021/04/03 04:54:13;;;;;;;24.40;22.90;;;;;;;6.74;100.00;100645.38;5015795;28;20030;-74
2021/04/03 04:56:39;;;;;;;25.50;23.73;;;;;;;6.73;100.00;100653.50;5027447;28;20034;-74
2021/04/03 04:59:04;;;;;;;25.30;23.42;;;;;;;6.65;100.00;100654.38;5038620;28;20086;-74
2021/04/03 05:01:30;;;;;;;20.83;19.42;;;;;;;7.84;100.00;100635.63;5028453;28;20406;-74
2021/04/03 05:03:55;;;;;;;23.52;22.23;;;;;;;8.33;100.00;100635.66;5041780;28;20064;-74
2021/04/03 05:06:20;;;;;;;24.98;23.38;;;;;;;7.09;100.00;100643.00;5027974;28;20040;-74
2021/04/03 05:08:46;;;;;;;24.42;22.90;;;;;;;6.60;100.00;100643.59;5020316;28;20474;-74
2021/04/03 05:11:11;;;;;;;26.02;24.35;;;;;;;6.80;100.00;100631.44;5029980;28;20045;-74
2021/04/03 05:13:37;;;;;;;24.27;22.67;;;;;;;6.65;100.00;100646.47;5028723;28;20037;-74
2021/04/03 05:16:02;;;;;;;24.08;22.40;;;;;;;6.75;100.00;100644.41;5029351;28;20063;-74
2021/04/03 05:18:27;;;;;;;23.75;21.88;;;;;;;6.83;100.00;100646.94;5029503;28;20068;-73
2021/04/03 05:20:53;;;;;;;24.70;23.00;;;;;;;6.79;100.00;100645.66;5031881;28;20108;-73
2021/04/03 05:23:19;;;;;;;26.48;24.58;;;;;;;6.77;100.00;100646.84;5029755;28;20468;-74
2021/04/03 05:25:45;;;;;;;26.45;24.58;;;;;;;7.21;100.00;100649.44;5027475;28;20048;-73
2021/04/03 05:28:10;;;;;;;25.30;22.98;;;;;;;7.27;100.00;100639.97;5027569;28;20025;-74
2021/04/03 05:30:36;;;;;;;24.70;22.73;;;;;;;7.05;100.00;100639.91;5032525;28;20052;-74
2021/04/03 05:33:01;;;;;;;23.77;22.17;;;;;;;7.30;100.00;100648.31;5030572;28;20520;-74
2021/04/03 05:35:27;;;;;;;23.50;21.90;;;;;;;7.66;100.00;100642.22;5025014;28;20386;-74
2021/04/03 05:37:52;;;;;;;25.65;23.77;;;;;;;6.98;100.00;100635.53;5023500;28;20112;-74
2021/04/03 05:40:18;;;;;;;25.77;23.73;;;;;;;7.56;100.00;100634.59;5026731;28;20477;-74
2021/04/03 05:42:46;;;;;;;26.20;24.38;;;;;;;7.32;100.00;100637.56;5040814;28;20025;-74
2021/04/03 05:45:15;;;;;;;26.63;24.52;;;;;;;7.53;100.00;100632.31;5023295;28;20053;-73
2021/04/03 05:47:41;;;;;;;27.63;25.67;;;;;;;7.42;100.00;100642.56;5027076;28;20393;-73
2021/04/03 05:50:08;;;;;;;25.98;24.20;;;;;;;7.72;100.00;100653.84;5020698;28;20014;-74
2021/04/03 05:52:34;;;;;;;25.23;23.60;;;;;;;7.52;100.00;100651.00;5018224;28;20124;-74
2021/04/03 05:55:01;;;;;;;28.98;26.33;;;;;;;7.86;100.00;100654.78;5024549;28;20112;-73
2021/04/03 05:57:27;;;;;;;27.98;25.92;;;;;;;8.00;100.00;100652.06;5030324;28;20094;-74
2021/04/03 05:59:52;;;;;;;26.70;25.00;;;;;;;8.10;100.00;100653.56;5026063;28;20037;-74
2021/04/03 06:02:18;;;;;;;26.38;24.77;;;;;;;7.98;100.00;100647.97;5026111;28;20056;-76
2021/04/03 06:04:44;;;;;;;27.17;25.30;;;;;;;8.08;100.00;100651.13;5026016;28;20026;-74
2021/04/03 06:07:09;;;;;;;27.17;25.15;;;;;;;8.18;100.00;100656.09;5023526;28;20024;-74
2021/04/03 06:09:36;;;;;;;27.60;25.63;;;;;;;8.34;100.00;100653.16;5023256;28;20018;-74
2021/04/03 06:12:02;;;;;;;26.33;24.42;;;;;;;8.21;100.00;100656.53;5032690;28;20050;-74
2021/04/03 06:14:34;;;;;;;25.42;23.58;;;;;;;8.49;100.00;100666.31;5027329;28;20390;-74
2021/04/03 06:17:00;;;;;;;;;;;;;;;8.55;100.00;100667.38;5031678;28;20083;-74
2021/04/03 06:19:26;;;;;;;26.98;25.13;;;;;;;8.31;100.00;100673.88;5027429;28;19921;-74
2021/04/03 06:21:54;;;;;;;26.67;24.90;;;;;;;8.39;100.00;100665.84;5026411;28;20029;-74
2021/04/03 06:24:35;;;;;;;26.42;24.45;;;;;;;8.26;100.00;100663.91;5027008;28;20414;-74
2021/04/03 06:27:03;;;;;;;29.55;27.25;;;;;;;8.32;100.00;100664.94;5023433;28;20048;-74
2021/04/03 06:29:31;;;;;;;28.85;26.35;;;;;;;8.15;100.00;100667.06;5030431;28;20026;-73
2021/04/03 06:31:58;;;;;;;26.77;24.75;;;;;;;8.12;100.00;100668.25;5028089;28;20383;-74
2021/04/03 06:34:32;;;;;;;25.67;23.77;;;;;;;8.36;100.00;100677.59;5022981;28;20439;-74
2021/04/03 06:36:58;;;;;;;23.75;22.17;;;;;;;8.77;100.00;100670.75;5025302;28;20044;-74
2021/04/03 06:39:24;;;;;;;27.17;25.42;;;;;;;8.19;100.00;100668.31;5026771;28;20072;-74
2021/04/03 06:41:51;;;;;;;29.23;27.08;;;;;;;8.26;100.00;100666.53;5021446;28;20405;-74
2021/04/03 06:44:16;;;;;;;30.40;27.83;;;;;;;8.27;100.00;100668.16;5025001;28;20378;-74
2021/04/03 06:46:43;;;;;;;38.63;34.92;;;;;;;8.25;100.00;100668.34;5025267;28;20029;-73
2021/04/03 06:49:09;;;;;;;35.13;32.00;;;;;;;8.42;100.00;100671.56;5024314;28;20510;-73
2021/04/03 06:51:36;;;;;;;29.70;27.70;;;;;;;8.27;100.00;100663.69;5017629;28;20037;-73
2021/04/03 06:54:04;;;;;;;29.42;27.42;;;;;;;8.27;100.00;100671.63;5022071;28;20026;-74
2021/04/03 06:56:31;;;;;;;27.92;25.95;;;;;;;8.34;100.00;100669.03;5021307;28;20490;-74
2021/04/03 06:59:05;;;;;;;26.90;25.10;;;;;;;8.63;100.00;100668.06;5024790;28;20033;-74
2021/04/03 07:01:42;;;;;;;27.17;25.08;;;;;;;8.57;100.00;100660.06;5028491;28;20036;-74
2021/04/03 07:04:20;;;;;;;26.63;24.83;;;;;;;9.00;100.00;100662.53;5025253;28;20026;-73
2021/04/03 07:06:48;;;;;;;25.95;23.90;;;;;;;9.06;100.00;100664.41;5025652;28;20520;-74
2021/04/03 07:09:14;;;;;;;25.90;24.10;;;;;;;8.97;100.00;100657.63;5025019;28;20041;-75
2021/04/03 07:11:40;;;;;;;28.95;26.48;;;;;;;9.13;100.00;100655.47;5028912;28;20041;-73
2021/04/03 07:14:07;;;;;;;30.63;28.25;;;;;;;9.17;100.00;100655.91;5021820;28;20485;-74
2021/04/03 07:16:34;;;;;;;30.10;27.83;;;;;;;9.07;100.00;100661.53;5026185;28;20033;-73
2021/04/03 07:19:03;;;;;;;28.77;26.80;;;;;;;9.07;100.00;100652.78;5027983;28;20025;-74
2021/04/03 07:21:29;;;;;;;28.65;26.55;;;;;;;9.57;100.00;100656.84;5028949;28;20340;-74
2021/04/03 07:23:58;;;;;;;31.08;28.52;;;;;;;9.30;100.00;100650.63;5026114;28;20072;-74
2021/04/03 07:26:24;;;;;;;33.90;30.92;;;;;;;9.06;100.00;100656.47;5022622;28;20390;-74
2021/04/03 07:28:49;;;;;;;29.98;27.83;;;;;;;9.22;100.00;100655.28;5037381;28;20037;-74
2021/04/03 07:31:41;;;;;;;30.13;27.88;;;;;;;9.62;100.00;100654.41;5025355;28;20029;-74
2021/04/03 07:34:08;;;;;;;30.52;28.17;;;;;;;9.66;100.00;100656.66;5034611;28;20021;-74
2021/04/03 07:36:39;;;;;;;30.45;28.15;;;;;;;9.60;100.00;100661.75;5033718;28;20037;-74
2021/04/03 07:39:07;;;;;;;33.25;30.25;;;;;;;10.06;100.00;100662.81;5028658;28;20029;-74
2021/04/03 07:41:38;;;;;;;82.95;49.78;;;;;;;9.89;100.00;100653.59;5033142;28;20111;-74
2021/04/03 07:44:09;;;;;;;37.47;33.42;;;;;;;10.11;100.00;100647.09;5028650;28;20021;-74
2021/04/03 07:46:41;;;;;;;47.92;38.78;;;;;;;10.11;100.00;100643.66;5033191;28;20497;-75
2021/04/03 07:49:07;;;;;;;34.17;31.60;;;;;;;10.01;100.00;100650.13;5033913;28;20027;-75
2021/04/03 07:51:32;;;;;;;31.23;28.73;;;;;;;10.19;100.00;100649.53;5032457;28;20021;-74
2021/04/03 07:54:00;;;;;;;33.83;30.80;;;;;;;10.34;100.00;100656.50;5040803;28;20480;-76
2021/04/03 07:56:46;;;;;;;31.88;29.38;;;;;;;10.16;100.00;100644.63;5031652;28;20481;-74
2021/04/03 07:59:13;;;;;;;48.60;40.53;;;;;;;10.62;100.00;100648.28;5033069;28;20021;-75
2021/04/03 08:01:39;;;;;;;36.70;33.22;;;;;;;10.75;100.00;100648.28;5030403;28;20073;-74
2021/04/03 08:04:06;;;;;;;36.85;33.58;;;;;;;10.64;100.00;100647.06;5031103;28;20472;-75
2021/04/03 08:06:38;;;;;;;34.13;31.15;;;;;;;10.97;100.00;100646.97;5030258;28;20035;-74
2021/04/03 08:09:09;;;;;;;35.85;32.65;;;;;;;11.05;100.00;100648.59;5029133;28;20018;-76
2021/04/03 08:11:34;;;;;;;34.53;31.75;;;;;;;11.42;100.00;100644.31;5030355;28;20593;-74
2021/04/03 08:14:01;;;;;;;31.85;28.92;;;;;;;11.65;100.00;100629.66;5031432;28;20056;-74
2021/04/03 08:16:29;;;;;;;31.80;28.92;;;;;;;11.56;100.00;100636.25;5048613;28;20040;-74
2021/04/03 08:18:57;;;;;;;30.58;28.02;;;;;;;12.00;100.00;100637.22;5031418;28;20120;-76
2021/04/03 08:21:24;;;;;;;32.53;29.70;;;;;;;12.03;100.00;100632.25;5029204;28;20437;-73
2021/04/03 08:23:54;;;;;;;33.20;30.38;;;;;;;12.23;100.00;100633.97;5034307;28;20417;-74
2021/04/03 08:26:22;;;;;;;32.65;30.17;;;;;;;12.44;100.00;100622.09;5035789;28;20025;-74
2021/04/03 08:28:49;;;;;;;31.35;28.85;;;;;;;12.40;100.00;100624.34;5033006;28;20481;-73
2021/04/03 08:31:16;;;;;;;31.67;29.27;;;;;;;12.00;100.00;100630.03;5034413;28;20098;-73
2021/04/03 08:33:43;;;;;;;29.92;27.52;;;;;;;12.01;100.00;100633.50;5029517;28;20351;-74
2021/04/03 08:36:26;;;;;;;33.65;30.35;;;;;;;12.11;100.00;100621.34;5035061;28;20471;-74
2021/04/03 08:38:53;;;;;;;36.83;33.53;;;;;;;12.44;100.00;100630.06;5024669;28;20066;-74
2021/04/03 08:41:21;;;;;;;34.10;31.20;;;;;;;12.28;100.00;100637.56;5030410;28;20033;-74
2021/04/03 08:43:48;;;;;;;32.25;29.20;;;;;;;13.21;100.00;100630.41;5030049;28;20025;-74
2021/04/03 08:46:14;;;;;;;33.40;30.52;;;;;;;13.43;100.00;100638.75;5030690;28;20060;-74
2021/04/03 08:48:45;;;;;;;34.05;31.27;;;;;;;13.46;100.00;100632.97;5025579;28;20449;-73
2021/04/03 08:51:12;;;;;;;31.85;28.85;;;;;;;13.41;100.00;100620.31;5024994;28;20064;-74
2021/04/03 08:53:42;;;;;;;32.20;29.65;;;;;;;13.20;100.00;100620.78;5024662;28;20040;-73
2021/04/03 08:56:09;;;;;;;32.83;30.20;;;;;;;13.51;100.00;100615.25;5029429;28;20147;-74
2021/04/03 08:58:37;;;;;;;31.80;29.30;;;;;;;14.09;100.00;100611.03;5022620;28;20049;-74
2021/04/03 09:01:05;;;;;;;32.95;30.05;;;;;;;13.64;100.00;100608.88;5027627;28;20056;-74
2021/04/03 09:03:33;;;;;;;34.08;31.02;;;;;;;13.43;100.00;100601.41;5024230;28;20026;-74
2021/04/03 09:06:00;;;;;;;33.50;30.90;;;;;;;14.39;100.00;100600.25;5026622;28;20703;-73
2021/04/03 09:08:25;;;;;;;34.28;31.15;;;;;;;14.32;100.00;100609.44;5026730;28;20108;-73
2021/04/03 09:11:02;;;;;;;35.10;32.03;;;;;;;14.68;100.00;100594.22;5001686;28;20443;-74
2021/04/03 09:13:36;;;;;;;45.53;40.28;;;;;;;15.03;100.00;100600.25;5026355;28;20025;-74
2021/04/03 09:16:08;;;;;;;39.17;35.47;;;;;;;14.70;100.00;100597.44;5044859;28;20044;-74
2021/04/03 09:18:34;;;;;;;;;;;;;;;14.42;100.00;100593.63;5027648;28;20634;-74
2021/04/03 09:20:59;;;;;;;35.58;32.40;;;;;;;14.71;100.00;100599.09;5025018;28;19921;-74
2021/04/03 09:23:25;;;;;;;35.67;32.33;;;;;;;14.48;100.00;100594.56;5030366;28;20106;-74
2021/04/03 09:25:59;;;;;;;34.97;31.98;;;;;;;14.31;100.00;100595.28;5028062;28;20062;-74
2021/04/03 09:28:42;;;;;;;33.20;30.23;;;;;;;13.40;100.00;100594.66;5033947;28;20161;-74
2021/04/03 09:31:10;;;;;;;32.63;29.52;;;;;;;13.87;100.00;100588.63;5023588;28;20037;-74
2021/04/03 09:33:49;;;;;;;35.42;32.47;;;;;;;14.59;100.00;100596.44;5025844;28;20494;-74
2021/04/03 09:36:17;;;;;;;33.50;30.80;;;;;;;14.48;100.00;100595.38;5024425;28;20029;-74
2021/04/03 09:38:45;;;;;;;33.88;30.80;;;;;;;15.26;100.00;100590.53;5020201;28;20108;-74
2021/04/03 09:41:21;;;;;;;33.75;30.85;;;;;;;15.83;100.00;100587.78;5021547;28;20025;-74
2021/04/03 09:43:46;;;;;;;34.13;31.40;;;;;;;15.48;100.00;100582.59;5026270;28;20026;-74
2021/04/03 09:46:12;;;;;;;36.35;33.05;;;;;;;15.41;100.00;100592.66;5024035;28;20033;-74
2021/04/03 09:48:37;;;;;;;35.70;32.15;;;;;;;15.94;100.00;100584.19;5026898;28;20025;-74
2021/04/03 09:51:05;;;;;;;34.45;31.67;;;;;;;15.73;100.00;100592.94;5032999;28;20040;-74
2021/04/03 09:53:30;;;;;;;34.05;31.33;;;;;;;16.65;100.00;100581.69;5024185;28;20108;-77
2021/04/03 09:55:57;;;;;;;32.92;30.40;;;;;;;16.56;100.00;100583.19;5033094;28;20170;-74
2021/04/03 09:58:23;;;;;;;37.45;34.25;;;;;;;16.96;100.00;100578.59;5029271;28;20551;-75
2021/04/03 10:00:49;;;;;;;36.10;33.28;;;;;;;16.71;100.00;100577.22;5022701;28;20032;-74
2021/04/03 10:03:14;;;;;;;34.53;31.92;;;;;;;17.16;100.00;100573.47;5028127;28;20437;-75
2021/04/03 10:05:39;;;;;;;34.25;31.55;;;;;;;17.58;100.00;100564.72;5026641;28;20367;-75
2021/04/03 10:08:05;;;;;;;35.53;32.67;;;;;;;17.35;100.00;100563.16;5031802;28;20025;-75
2021/04/03 10:10:31;;;;;;;36.45;33.35;;;;;;;17.64;100.00;100563.69;5027957;28;20471;-75
2021/04/03 10:12:56;;;;;;;37.80;34.55;;;;;;;17.76;100.00;100561.66;5027885;28;20098;-75
2021/04/03 10:15:22;;;;;;;35.55;32.88;;;;;;;17.70;100.00;100561.84;5033086;28;20465;-75
2021/04/03 10:17:48;;;;;;;35.75;32.92;;;;;;;18.29;100.00;100553.66;5028618;28;20044;-75
2021/04/03 10:20:14;;;;;;;37.30;34.05;;;;;;;17.54;100.00;100555.53;5022516;28;20030;-75
2021/04/03 10:22:39;;;;;;;35.95;32.80;;;;;;;17.87;100.00;100554.47;5025842;28;20033;-75
2021/04/03 10:25:06;;;;;;;36.08;32.85;;;;;;;18.16;100.00;100554.94;5032089;28;20483;-75
2021/04/03 10:27:31;;;;;;;36.72;33.92;;;;;;;18.56;100.00;100560.78;5026750;28;20497;-75
2021/04/03 10:29:57;;;;;;;37.13;34.33;;;;;;;17.98;100.00;100558.88;5028339;28;20017;-75
2021/04/03 10:32:23;;;;;;;40.05;36.47;;;;;;;18.81;100.00;100558.22;5026420;28;20033;-75
2021/04/03 10:34:49;;;;;;;35.47;32.45;;;;;;;18.33;100.00;100559.31;5026538;28;20095;-75
2021/04/03 10:37:14;;;;;;;115.50;50.95;;;;;;;19.37;100.00;100562.94;5028710;28;20029;-74
2021/04/03 10:39:40;;;;;;;49.83;45.15;;;;;;;17.72;100.00;100559.72;5023579;28;20032;-75
2021/04/03 10:42:07;;;;;;;40.03;36.58;;;;;;;17.38;100.00;100559.97;5025269;28;20080;-74
2021/04/03 10:44:33;;;;;;;46.10;42.70;;;;;;;16.92;100.00;100554.16;5045213;28;20490;-74
2021/04/03 10:46:58;;;;;;;46.17;42.60;;;;;;;16.52;100.00;100557.97;5028550;28;20080;-74
2021/04/03 10:49:24;;;;;;;39.42;36.63;;;;;;;16.40;100.00;100550.03;5035440;28;20018;-75
2021/04/03 10:51:49;;;;;;;35.28;32.90;;;;;;;16.54;100.00;100545.09;5031185;28;20086;-74
2021/04/03 10:54:18;;;;;;;36.72;33.88;;;;;;;16.29;100.00;100542.09;5027350;28;20025;-75
2021/04/03 10:56:44;;;;;;;38.97;36.10;;;;;;;16.45;100.00;100535.88;5031097;28;20122;-75
2021/04/03 10:59:09;;;;;;;40.10;36.80;;;;;;;15.92;100.00;100537.31;5024844;28;20045;-74
2021/04/03 11:01:35;;;;;;;37.30;34.20;;;;;;;15.70;100.00;100539.91;5034043;28;20022;-74
2021/04/03 11:04:00;;;;;;;39.13;35.80;;;;;;;15.55;100.00;100535.91;5034105;28;20479;-74
2021/04/03 11:06:26;;;;;;;39.50;36.53;;;;;;;15.47;100.00;100532.81;5029304;28;20018;-74
2021/04/03 11:08:51;;;;;;;38.53;35.40;;;;;;;15.41;100.00;100526.56;5034607;28;20532;-74
2021/04/03 11:11:16;;;;;;;40.90;37.88;;;;;;;15.05;100.00;100533.16;5031098;28;20510;-74